Time;durP1;ratioP1;P1;durP2;ratioP2;P2;SDS_P1;SDS_P2;PMS_P1;PMS_P2;Temp;Humidity;BMP_temperature;BMP_pressure;BME280_temperature;BME280_humidity;BME280_pressure;Samples;Min_cycle;Max_cycle;Signal;HPM_P1;HPM_P2
2022/05/30 00:00:23;;;;;;;;;;;14.20;61.10;;;;;;5084762;28;20664;-77
2022/05/30 00:02:50;;;;;;;;;;;14.20;61.30;;;;;;5080726;28;20725;-76
2022/05/30 00:05:17;;;;;;;;;;;14.10;61.30;;;;;;5080298;28;19928;-78
2022/05/30 00:07:44;;;;;;;;;;;14.10;61.70;;;;;;5083270;28;19928;-76
2022/05/30 00:10:11;;;;;;;;;;;14.10;61.70;;;;;;5077990;28;19932;-78
2022/05/30 00:12:38;;;;;;;;;;;14.00;61.50;;;;;;5083169;28;19932;-77
2022/05/30 00:15:08;;;;;;;;;;;14.00;61.80;;;;;;5078917;28;20544;-75
2022/05/30 00:17:35;;;;;;;;;;;14.00;61.70;;;;;;5083506;28;19932;-76
2022/05/30 00:20:03;;;;;;;;;;;14.00;62.10;;;;;;5076684;28;19974;-76
2022/05/30 00:22:29;;;;;;;;;;;13.90;61.90;;;;;;5078006;28;19932;-78
2022/05/30 00:24:56;;;;;;;;;;;13.90;61.90;;;;;;5084712;28;19928;-76
2022/05/30 00:27:22;;;;;;;;;;;13.80;62.60;;;;;;5084631;28;19993;-77
2022/05/30 00:29:49;;;;;;;;;;;13.80;62.10;;;;;;5084370;28;19928;-75
2022/05/30 00:32:18;;;;;;;;;;;13.80;62.20;;;;;;5086935;28;19936;-78
2022/05/30 00:34:44;;;;;;;;;;;13.80;62.20;;;;;;5084222;28;19939;-79
2022/05/30 00:37:11;;;;;;;;;;;13.80;62.30;;;;;;5086100;28;20482;-78
2022/05/30 00:39:37;;;;;;;;;;;13.70;62.20;;;;;;5091821;28;19932;-76
2022/05/30 00:42:08;;;;;;;;;;;13.70;62.40;;;;;;5090603;28;19928;-75
2022/05/30 00:44:34;;;;;;;;;;;13.70;62.40;;;;;;5085068;28;19940;-76
2022/05/30 00:47:01;;;;;;;;;;;13.60;62.30;;;;;;5084544;28;19942;-77
2022/05/30 00:49:29;;;;;;;;;;;13.60;62.30;;;;;;5090584;28;19935;-76
2022/05/30 00:51:56;;;;;;;;;;;13.50;62.30;;;;;;5085997;28;19954;-76
2022/05/30 00:54:26;;;;;;;;;;;13.50;62.30;;;;;;5079521;28;19928;-78
2022/05/30 00:56:54;;;;;;;;;;;13.50;62.20;;;;;;5081422;28;19944;-78
2022/05/30 00:59:21;;;;;;;;;;;13.50;62.20;;;;;;5080986;28;19928;-75
2022/05/30 01:01:48;;;;;;;;;;;13.40;62.10;;;;;;5080803;28;19940;-76
2022/05/30 01:07:03;;;;;;;;;;;13.40;62.40;;;;;;5085729;28;19935;-77
2022/05/30 01:09:32;;;;;;;;;;;13.40;62.30;;;;;;5085836;28;19935;-77
2022/05/30 01:12:00;;;;;;;;;;;13.30;62.40;;;;;;5082681;28;19958;-76
2022/05/30 01:14:28;;;;;;;;;;;13.30;62.60;;;;;;5088915;28;19954;-77
2022/05/30 01:20:17;;;;;;;;;;;13.30;62.50;;;;;;5088511;28;19970;-75
2022/05/30 01:23:00;;;;;;;;;;;13.20;62.60;;;;;;5073553;28;19943;-78
2022/05/30 01:25:42;;;;;;;;;;;13.20;62.70;;;;;;5082857;28;19928;-76
2022/05/30 01:28:10;;;;;;;;;;;13.10;62.60;;;;;;5082819;28;19958;-76
2022/05/30 01:30:39;;;;;;;;;;;13.10;62.60;;;;;;5080297;28;19936;-76
2022/05/30 01:33:06;;;;;;;;;;;13.10;62.80;;;;;;5080076;28;19932;-76
2022/05/30 01:35:34;;;;;;;;;;;13.10;63.00;;;;;;5086584;28;19924;-77
2022/05/30 01:38:01;;;;;;;;;;;13.00;63.90;;;;;;5078582;28;19925;-77
2022/05/30 01:40:27;;;;;;;;;;;13.00;63.00;;;;;;5080795;28;19947;-75
2022/05/30 01:42:54;;;;;;;;;;;12.90;62.80;;;;;;5080570;28;19932;-76
2022/05/30 01:45:21;;;;;;;;;;;12.90;63.10;;;;;;5081498;28;19932;-76
2022/05/30 01:47:49;;;;;;;;;;;12.90;63.30;;;;;;5082193;28;19924;-76
2022/05/30 01:50:15;;;;;;;;;;;12.90;63.30;;;;;;5083468;28;19935;-76
2022/05/30 01:52:42;;;;;;;;;;;12.80;64.00;;;;;;5080970;28;19934;-78
2022/05/30 01:55:09;;;;;;;;;;;12.80;63.10;;;;;;5080824;28;20038;-76
2022/05/30 01:57:37;;;;;;;;;;;12.80;63.30;;;;;;5080205;28;19924;-76
2022/05/30 02:00:05;;;;;;;;;;;12.70;63.20;;;;;;5079297;28;20001;-75
2022/05/30 02:02:31;;;;;;;;;;;12.70;63.20;;;;;;5083124;28;19928;-78
2022/05/30 02:04:59;;;;;;;;;;;12.70;63.30;;;;;;5078556;28;19924;-76
2022/05/30 02:07:26;;;;;;;;;;;12.70;63.40;;;;;;5080295;28;19935;-76
2022/05/30 02:09:52;;;;;;;;;;;12.60;63.40;;;;;;5082901;28;19932;-76
2022/05/30 02:12:19;;;;;;;;;;;12.60;63.50;;;;;;5085078;28;19932;-76
2022/05/30 02:14:46;;;;;;;;;;;12.60;63.50;;;;;;5080787;28;19971;-76
2022/05/30 02:17:12;;;;;;;;;;;12.50;63.40;;;;;;5078881;28;19928;-78
2022/05/30 02:19:39;;;;;;;;;;;12.50;63.40;;;;;;5080474;28;19931;-76
2022/05/30 02:22:08;;;;;;;;;;;12.50;63.70;;;;;;5079479;28;20535;-76
2022/05/30 02:24:35;;;;;;;;;;;12.40;63.70;;;;;;5085098;28;19932;-76
2022/05/30 02:27:02;;;;;;;;;;;12.40;63.90;;;;;;5087432;28;19974;-76
2022/05/30 02:29:29;;;;;;;;;;;12.40;63.80;;;;;;5080400;28;19950;-75
2022/05/30 02:31:55;;;;;;;;;;;12.40;63.90;;;;;;5082301;28;19934;-76
2022/05/30 02:37:08;;;;;;;;;;;12.30;63.90;;;;;;5076729;28;19927;-79
2022/05/30 02:39:34;;;;;;;;;;;12.30;64.00;;;;;;5078912;28;20347;-76
2022/05/30 02:42:01;;;;;;;;;;;12.20;64.10;;;;;;5085998;28;19928;-77
2022/05/30 02:44:28;;;;;;;;;;;12.20;64.00;;;;;;5083329;28;19935;-76
2022/05/30 02:46:57;;;;;;;;;;;12.10;64.10;;;;;;5083591;28;19932;-77
2022/05/30 02:49:24;;;;;;;;;;;12.10;64.10;;;;;;5089724;28;20265;-77
2022/05/30 02:51:51;;;;;;;;;;;12.10;64.20;;;;;;5077946;28;19931;-75
2022/05/30 02:54:19;;;;;;;;;;;12.10;64.20;;;;;;5084339;28;20589;-77
2022/05/30 02:56:48;;;;;;;;;;;12.10;64.20;;;;;;5086191;28;19950;-75
2022/05/30 02:59:15;;;;;;;;;;;12.00;64.20;;;;;;5088223;28;19928;-78
2022/05/30 03:01:42;;;;;;;;;;;12.00;64.30;;;;;;5084703;28;20069;-76
2022/05/30 03:04:08;;;;;;;;;;;11.90;64.80;;;;;;5088911;28;19927;-77
2022/05/30 03:06:35;;;;;;;;;;;11.90;64.40;;;;;;5080617;28;19941;-78
2022/05/30 03:09:02;;;;;;;;;;;11.90;64.40;;;;;;5087740;28;19935;-76
2022/05/30 03:11:30;;;;;;;;;;;11.90;64.50;;;;;;5089299;28;19928;-76
2022/05/30 03:13:57;;;;;;;;;;;11.80;64.50;;;;;;5080136;28;19931;-76
2022/05/30 03:16:24;;;;;;;;;;;11.80;64.70;;;;;;5082260;28;20168;-78
2022/05/30 03:18:50;;;;;;;;;;;11.80;64.80;;;;;;5081166;28;19928;-75
2022/05/30 03:21:17;;;;;;;;;;;11.70;64.90;;;;;;5081947;28;19928;-78
2022/05/30 03:23:44;;;;;;;;;;;11.70;64.90;;;;;;5087723;28;19928;-77
2022/05/30 03:26:11;;;;;;;;;;;11.70;65.00;;;;;;5080271;28;19928;-76
2022/05/30 03:28:39;;;;;;;;;;;11.70;65.00;;;;;;5076327;28;19939;-76
2022/05/30 03:31:07;;;;;;;;;;;11.60;65.00;;;;;;5081133;28;19928;-77
2022/05/30 03:33:33;;;;;;;;;;;11.60;65.00;;;;;;5082178;28;19928;-75
2022/05/30 03:36:00;;;;;;;;;;;11.60;65.00;;;;;;5076011;28;19944;-77
2022/05/30 03:38:26;;;;;;;;;;;11.50;65.10;;;;;;5086987;28;19924;-76
2022/05/30 03:40:53;;;;;;;;;;;11.50;65.10;;;;;;5087868;28;19935;-77
2022/05/30 03:43:21;;;;;;;;;;;11.50;65.20;;;;;;5088097;28;19982;-76
2022/05/30 03:45:49;;;;;;;;;;;11.50;65.30;;;;;;5080202;28;19931;-76
2022/05/30 03:48:16;;;;;;;;;;;11.40;65.30;;;;;;5086583;28;19935;-78
2022/05/30 03:50:43;;;;;;;;;;;11.40;65.30;;;;;;5084142;28;20020;-76
2022/05/30 03:53:10;;;;;;;;;;;11.40;65.40;;;;;;5087134;28;19939;-75
2022/05/30 03:55:40;;;;;;;;;;;11.40;65.50;;;;;;5087607;28;19935;-77
2022/05/30 03:58:09;;;;;;;;;;;11.40;65.40;;;;;;5086504;28;19940;-77
2022/05/30 04:00:36;;;;;;;;;;;11.30;65.50;;;;;;5080225;28;19943;-76
2022/05/30 04:03:04;;;;;;;;;;;11.30;65.60;;;;;;5080235;28;19924;-76
2022/05/30 04:05:30;;;;;;;;;;;11.30;65.70;;;;;;5078133;28;19924;-77
2022/05/30 04:07:58;;;;;;;;;;;11.30;65.70;;;;;;5086132;28;19979;-75
2022/05/30 04:10:25;;;;;;;;;;;11.20;65.60;;;;;;5085560;28;20692;-78
2022/05/30 04:12:59;;;;;;;;;;;11.20;65.70;;;;;;5089660;28;19928;-76
2022/05/30 04:15:26;;;;;;;;;;;11.20;65.90;;;;;;5085659;28;19932;-76
2022/05/30 04:17:52;;;;;;;;;;;11.20;65.90;;;;;;5087531;28;19936;-77
2022/05/30 04:20:20;;;;;;;;;;;11.10;66.00;;;;;;5092636;28;19933;-76
2022/05/30 04:22:47;;;;;;;;;;;11.10;66.00;;;;;;5084020;28;20471;-78
2022/05/30 04:25:14;;;;;;;;;;;11.10;66.00;;;;;;5094225;28;19934;-78
2022/05/30 04:27:40;;;;;;;;;;;11.10;66.00;;;;;;5088781;28;19928;-76
2022/05/30 04:30:08;;;;;;;;;;;11.00;66.00;;;;;;5086438;28;19940;-76
2022/05/30 04:32:35;;;;;;;;;;;11.00;66.20;;;;;;5086746;28;19969;-77
2022/05/30 04:35:02;;;;;;;;;;;11.00;66.30;;;;;;5084854;28;19974;-79
2022/05/30 04:37:30;;;;;;;;;;;11.00;66.30;;;;;;5082377;28;19939;-75
2022/05/30 04:39:56;;;;;;;;;;;10.90;66.30;;;;;;5088769;28;20110;-74
2022/05/30 04:42:23;;;;;;;;;;;10.90;66.30;;;;;;5089050;28;19928;-77
2022/05/30 04:44:49;;;;;;;;;;;10.90;66.30;;;;;;5080342;28;19936;-75
2022/05/30 04:47:16;;;;;;;;;;;10.90;66.40;;;;;;5076643;28;19924;-78
2022/05/30 04:49:43;;;;;;;;;;;10.90;66.50;;;;;;5085793;28;19924;-77
2022/05/30 04:52:09;;;;;;;;;;;10.80;66.50;;;;;;5076751;28;20631;-76
2022/05/30 04:54:37;;;;;;;;;;;10.80;66.60;;;;;;5079674;28;19940;-76
2022/05/30 04:57:06;;;;;;;;;;;10.80;66.70;;;;;;5081632;28;19940;-74
2022/05/30 04:59:32;;;;;;;;;;;10.80;66.70;;;;;;5083638;28;19932;-76
2022/05/30 05:01:59;;;;;;;;;;;10.80;66.80;;;;;;5082296;28;19954;-75
2022/05/30 05:04:25;;;;;;;;;;;10.80;66.80;;;;;;5075570;28;19939;-76
2022/05/30 05:06:52;;;;;;;;;;;10.80;66.80;;;;;;5081715;28;19939;-76
2022/05/30 05:09:28;;;;;;;;;;;10.80;66.90;;;;;;5086219;28;19942;-77
2022/05/30 05:11:56;;;;;;;;;;;10.70;66.90;;;;;;5082230;28;19939;-75
2022/05/30 05:14:23;;;;;;;;;;;10.70;67.00;;;;;;5081603;28;19932;-76
2022/05/30 05:16:50;;;;;;;;;;;10.70;67.00;;;;;;5083677;28;19938;-76
2022/05/30 05:19:16;;;;;;;;;;;10.70;67.10;;;;;;5085644;28;20363;-76
2022/05/30 05:21:45;;;;;;;;;;;10.70;67.10;;;;;;5090263;28;19935;-79
2022/05/30 05:24:12;;;;;;;;;;;10.70;67.10;;;;;;5096223;28;20597;-79
2022/05/30 05:26:43;;;;;;;;;;;10.70;67.10;;;;;;5093614;28;19939;-78
2022/05/30 05:29:11;;;;;;;;;;;10.70;67.20;;;;;;5085879;28;19935;-76
2022/05/30 05:31:37;;;;;;;;;;;10.70;67.30;;;;;;5082315;28;19924;-79
2022/05/30 05:34:05;;;;;;;;;;;10.70;67.30;;;;;;5085785;28;19951;-78
2022/05/30 05:36:34;;;;;;;;;;;10.70;67.30;;;;;;5078150;28;19928;-68
2022/05/30 05:39:01;;;;;;;;;;;10.70;67.30;;;;;;5075136;28;19934;-70
2022/05/30 05:41:27;;;;;;;;;;;10.70;67.30;;;;;;5081304;28;19936;-68
2022/05/30 05:43:54;;;;;;;;;;;10.70;67.30;;;;;;5081846;28;19928;-70
2022/05/30 05:46:23;;;;;;;;;;;10.70;67.30;;;;;;5079512;28;19928;-69
2022/05/30 05:48:51;;;;;;;;;;;10.70;67.40;;;;;;5082187;28;19927;-70
2022/05/30 05:51:19;;;;;;;;;;;10.70;67.40;;;;;;5077906;28;19939;-70
2022/05/30 05:53:46;;;;;;;;;;;10.70;67.40;;;;;;5084770;28;19932;-70
2022/05/30 05:56:13;;;;;;;;;;;10.70;67.50;;;;;;5077090;28;19928;-70
2022/05/30 05:58:39;;;;;;;;;;;10.70;67.50;;;;;;5083791;28;19936;-68
2022/05/30 06:01:07;;;;;;;;;;;10.70;67.50;;;;;;5079435;28;19928;-67
2022/05/30 06:03:35;;;;;;;;;;;10.80;67.40;;;;;;5082616;28;19928;-73
2022/05/30 06:06:03;;;;;;;;;;;10.80;67.40;;;;;;5071748;28;19928;-70
2022/05/30 06:08:29;;;;;;;;;;;10.80;67.40;;;;;;5070955;28;19944;-71
2022/05/30 06:11:12;;;;;;;;;;;10.70;67.30;;;;;;5071783;28;19939;-72
2022/05/30 06:13:39;;;;;;;;;;;10.80;67.40;;;;;;5071956;28;20023;-70
2022/05/30 06:16:07;;;;;;;;;;;10.90;67.50;;;;;;5071705;28;19932;-72
2022/05/30 06:18:35;;;;;;;;;;;10.90;67.50;;;;;;5073265;28;20494;-71
2022/05/30 06:21:03;;;;;;;;;;;10.90;67.50;;;;;;5074898;28;19928;-74
2022/05/30 06:23:30;;;;;;;;;;;10.90;67.50;;;;;;5074029;28;20007;-73
2022/05/30 06:25:59;;;;;;;;;;;10.90;67.40;;;;;;5074900;28;20557;-70
2022/05/30 06:28:26;;;;;;;;;;;11.00;67.40;;;;;;5075686;28;19996;-73
2022/05/30 06:30:52;;;;;;;;;;;11.00;67.40;;;;;;5076790;28;19940;-71
2022/05/30 06:33:19;;;;;;;;;;;11.00;67.40;;;;;;5079011;28;19998;-72
2022/05/30 06:35:47;;;;;;;;;;;11.00;67.40;;;;;;5071864;28;20531;-72
2022/05/30 06:38:14;;;;;;;;;;;11.10;67.40;;;;;;5069853;28;19927;-75
2022/05/30 06:40:42;;;;;;;;;;;11.10;67.50;;;;;;5065487;28;19936;-70
2022/05/30 06:43:09;;;;;;;;;;;11.10;67.40;;;;;;5073692;28;19928;-70
2022/05/30 06:45:36;;;;;;;;;;;11.10;67.70;;;;;;5068189;28;19943;-72
2022/05/30 06:48:03;;;;;;;;;;;11.10;67.60;;;;;;5070543;28;19932;-71
2022/05/30 06:50:29;;;;;;;;;;;11.20;67.80;;;;;;5068431;28;19935;-75
2022/05/30 06:52:57;;;;;;;;;;;11.10;67.70;;;;;;5075274;28;20335;-75
2022/05/30 06:55:24;;;;;;;;;;;11.20;67.70;;;;;;5065107;28;19940;-71
2022/05/30 07:00:35;;;;;;;;;;;11.20;67.80;;;;;;5073167;28;19935;-71
2022/05/30 07:03:01;;;;;;;;;;;11.30;67.90;;;;;;5071580;28;19939;-75
2022/05/30 07:05:28;;;;;;;;;;;11.30;67.90;;;;;;5071935;28;19928;-72
2022/05/30 07:07:56;;;;;;;;;;;11.30;67.80;;;;;;5073933;28;19928;-74
2022/05/30 07:10:24;;;;;;;;;;;11.30;67.70;;;;;;5076364;28;19927;-72
2022/05/30 07:12:51;;;;;;;;;;;11.30;67.70;;;;;;5070385;28;20380;-72
2022/05/30 07:15:18;;;;;;;;;;;11.30;67.80;;;;;;5071788;28;19935;-74
2022/05/30 07:17:44;;;;;;;;;;;11.40;67.80;;;;;;5069213;28;19939;-72
2022/05/30 07:20:12;;;;;;;;;;;11.40;67.80;;;;;;5076655;28;20267;-72
2022/05/30 07:22:38;;;;;;;;;;;11.50;67.90;;;;;;5073172;28;19939;-73
2022/05/30 07:25:06;;;;;;;;;;;11.50;68.00;;;;;;5075230;28;19936;-71
2022/05/30 07:27:34;;;;;;;;;;;11.50;67.90;;;;;;5073745;28;20467;-72
2022/05/30 07:30:00;;;;;;;;;;;11.50;67.80;;;;;;5072407;28;20576;-71
2022/05/30 07:32:27;;;;;;;;;;;11.60;67.90;;;;;;5075470;28;19924;-72
2022/05/30 07:34:53;;;;;;;;;;;11.60;68.00;;;;;;5078317;28;19936;-72
2022/05/30 07:37:20;;;;;;;;;;;11.60;68.80;;;;;;5076249;28;20746;-72
2022/05/30 07:39:47;;;;;;;;;;;11.60;68.10;;;;;;5081840;28;19932;-73
2022/05/30 07:42:13;;;;;;;;;;;11.60;68.70;;;;;;5073707;28;19928;-75
2022/05/30 07:44:41;;;;;;;;;;;11.70;68.10;;;;;;5074128;28;20015;-71
2022/05/30 07:47:08;;;;;;;;;;;11.70;68.10;;;;;;5076110;28;19954;-73
2022/05/30 07:49:35;;;;;;;;;;;11.70;68.00;;;;;;5079824;28;19935;-70
2022/05/30 07:52:02;;;;;;;;;;;11.80;68.10;;;;;;5081107;28;20008;-72
2022/05/30 07:54:29;;;;;;;;;;;11.80;67.90;;;;;;5073561;28;20701;-70
2022/05/30 07:56:56;;;;;;;;;;;11.80;67.80;;;;;;5075452;28;19929;-75
2022/05/30 07:59:22;;;;;;;;;;;11.90;67.90;;;;;;5079952;28;19928;-74
2022/05/30 08:01:50;;;;;;;;;;;11.90;67.80;;;;;;5076082;28;20296;-71
2022/05/30 08:04:19;;;;;;;;;;;11.90;67.70;;;;;;5079442;28;19935;-74
2022/05/30 08:06:45;;;;;;;;;;;12.00;67.80;;;;;;5081204;28;20417;-73
2022/05/30 08:09:12;;;;;;;;;;;12.00;67.80;;;;;;5077506;28;19959;-72
2022/05/30 08:11:38;;;;;;;;;;;12.00;67.70;;;;;;5075489;28;19928;-72
2022/05/30 08:14:07;;;;;;;;;;;12.10;67.70;;;;;;5073647;28;19928;-71
2022/05/30 08:16:37;;;;;;;;;;;12.10;67.70;;;;;;5073753;28;20001;-73
2022/05/30 08:19:05;;;;;;;;;;;12.20;67.60;;;;;;5074900;28;19928;-72
2022/05/30 08:21:32;;;;;;;;;;;12.20;67.60;;;;;;5077089;28;20554;-74
2022/05/30 08:23:58;;;;;;;;;;;12.20;67.60;;;;;;5081901;28;19939;-71
2022/05/30 08:26:25;;;;;;;;;;;12.30;68.30;;;;;;5079239;28;20046;-73
2022/05/30 08:28:51;;;;;;;;;;;12.30;67.50;;;;;;5078637;28;20350;-72
2022/05/30 08:31:18;;;;;;;;;;;12.30;67.60;;;;;;5078626;28;19943;-71
2022/05/30 08:33:44;;;;;;;;;;;12.40;67.50;;;;;;5081957;28;20376;-71
2022/05/30 08:36:13;;;;;;;;;;;12.40;67.40;;;;;;5069024;28;20744;-70
2022/05/30 08:38:42;;;;;;;;;;;12.40;67.30;;;;;;5078714;28;19935;-71
2022/05/30 08:43:54;;;;;;;;;;;12.50;67.10;;;;;;5076804;28;19936;-71
2022/05/30 08:46:33;;;;;;;;;;;12.50;67.10;;;;;;5076094;28;19944;-71
2022/05/30 08:49:05;;;;;;;;;;;12.60;66.90;;;;;;5074399;28;19935;-73
2022/05/30 08:51:44;;;;;;;;;;;12.70;66.80;;;;;;5079058;28;19928;-74
2022/05/30 08:54:25;;;;;;;;;;;12.70;66.80;;;;;;5079949;28;20351;-71
2022/05/30 08:56:54;;;;;;;;;;;12.70;66.70;;;;;;5076214;28;19931;-72
2022/05/30 08:59:43;;;;;;;;;;;12.80;66.40;;;;;;5073497;28;19928;-70
2022/05/30 09:02:12;;;;;;;;;;;12.80;66.30;;;;;;5076911;28;19939;-73
2022/05/30 09:04:41;;;;;;;;;;;12.90;66.10;;;;;;5078020;28;21177;-71
2022/05/30 09:07:13;;;;;;;;;;;13.00;66.60;;;;;;5076778;28;19932;-69
2022/05/30 09:09:43;;;;;;;;;;;13.00;65.40;;;;;;5076048;28;19978;-69
2022/05/30 09:12:15;;;;;;;;;;;13.00;65.20;;;;;;5078722;28;19941;-71
2022/05/30 09:14:44;;;;;;;;;;;13.10;64.70;;;;;;5073010;28;19979;-73
2022/05/30 09:17:14;;;;;;;;;;;13.10;64.40;;;;;;5077401;28;20048;-72
2022/05/30 09:19:41;;;;;;;;;;;13.20;64.20;;;;;;5076286;28;20006;-70
2022/05/30 09:22:10;;;;;;;;;;;13.30;64.50;;;;;;5072771;28;19939;-70
2022/05/30 09:24:39;;;;;;;;;;;13.30;64.00;;;;;;5070104;28;19951;-69
2022/05/30 09:27:06;;;;;;;;;;;13.40;63.70;;;;;;5076002;28;19928;-73
2022/05/30 09:29:34;;;;;;;;;;;13.40;63.60;;;;;;5073367;28;20467;-70
2022/05/30 09:32:05;;;;;;;;;;;13.50;63.50;;;;;;5074643;28;19935;-73
2022/05/30 09:34:40;;;;;;;;;;;13.60;63.50;;;;;;5079752;28;19932;-72
2022/05/30 09:37:07;;;;;;;;;;;13.60;63.10;;;;;;5070874;28;20785;-71
2022/05/30 09:39:43;;;;;;;;;;;13.70;62.80;;;;;;5076322;28;19932;-71
2022/05/30 09:42:22;;;;;;;;;;;13.80;62.80;;;;;;5078306;28;20018;-74
2022/05/30 09:44:50;;;;;;;;;;;13.90;62.70;;;;;;5071705;28;19939;-73
2022/05/30 09:47:18;;;;;;;;;;;13.90;62.50;;;;;;5067971;28;19932;-75
2022/05/30 09:49:46;;;;;;;;;;;14.00;62.30;;;;;;5075145;28;19928;-73
2022/05/30 09:52:27;;;;;;;;;;;14.10;62.10;;;;;;5071850;28;19935;-72
2022/05/30 09:54:55;;;;;;;;;;;14.20;62.60;;;;;;5070984;28;20411;-71
2022/05/30 09:57:24;;;;;;;;;;;14.20;61.60;;;;;;5071379;28;19928;-73
2022/05/30 09:59:52;;;;;;;;;;;14.20;61.40;;;;;;5072504;28;20380;-70
2022/05/30 10:02:21;;;;;;;;;;;14.30;61.20;;;;;;5072860;28;19980;-72
2022/05/30 10:04:54;;;;;;;;;;;14.30;61.00;;;;;;5074350;28;20416;-72
2022/05/30 10:07:21;;;;;;;;;;;14.30;60.90;;;;;;5076759;28;19935;-72
2022/05/30 10:09:52;;;;;;;;;;;14.40;61.70;;;;;;5079237;28;20037;-75
2022/05/30 10:12:29;;;;;;;;;;;14.50;60.70;;;;;;5081427;28;19928;-71
2022/05/30 10:14:56;;;;;;;;;;;14.50;60.50;;;;;;5078786;28;20531;-72
2022/05/30 10:17:28;;;;;;;;;;;14.50;60.40;;;;;;5081530;28;20648;-71
2022/05/30 10:19:55;;;;;;;;;;;14.60;60.20;;;;;;5076449;28;19935;-72
2022/05/30 10:28:19;;;;;;;;;;;14.70;59.80;;;;;;5073182;28;20578;-71
2022/05/30 10:30:52;;;;;;;;;;;14.70;59.70;;;;;;5075144;28;19938;-70
2022/05/30 10:33:25;;;;;;;;;;;14.80;59.50;;;;;;5071995;28;20022;-74
2022/05/30 10:35:54;;;;;;;;;;;14.90;59.40;;;;;;5069701;28;19935;-72
2022/05/30 10:38:23;;;;;;;;;;;14.90;59.00;;;;;;5074717;28;19928;-72
2022/05/30 10:40:58;;;;;;;;;;;15.00;58.90;;;;;;5064833;28;19928;-72
2022/05/30 10:43:29;;;;;;;;;;;15.00;58.80;;;;;;5070272;28;19935;-74
2022/05/30 10:46:00;;;;;;;;;;;15.10;58.70;;;;;;5068235;28;21796;-71
2022/05/30 10:48:31;;;;;;;;;;;15.20;58.60;;;;;;5066764;28;20391;-71
2022/05/30 10:50:59;;;;;;;;;;;15.30;58.40;;;;;;5062998;28;19931;-73
2022/05/30 10:53:30;;;;;;;;;;;15.40;57.80;;;;;;5065749;28;19935;-74
2022/05/30 10:55:59;;;;;;;;;;;15.50;57.30;;;;;;5068491;28;19928;-73
2022/05/30 10:58:30;;;;;;;;;;;15.60;57.20;;;;;;5075795;28;19940;-74
2022/05/30 11:00:59;;;;;;;;;;;15.70;57.20;;;;;;5072167;28;19935;-72
2022/05/30 11:03:30;;;;;;;;;;;15.80;57.20;;;;;;5073703;28;19981;-73
2022/05/30 11:06:01;;;;;;;;;;;15.90;57.00;;;;;;5065673;28;19928;-70
2022/05/30 11:08:32;;;;;;;;;;;16.00;56.60;;;;;;5070765;28;20208;-73
2022/05/30 11:11:02;;;;;;;;;;;16.10;56.20;;;;;;5071014;28;20400;-70
2022/05/30 11:13:40;;;;;;;;;;;16.20;56.20;;;;;;5070661;28;20396;-71
2022/05/30 11:16:10;;;;;;;;;;;16.30;55.90;;;;;;5066319;28;19928;-72
2022/05/30 11:18:40;;;;;;;;;;;16.40;55.50;;;;;;5075367;28;20056;-72
2022/05/30 11:21:10;;;;;;;;;;;16.50;55.60;;;;;;5071425;28;20092;-72
2022/05/30 11:23:38;;;;;;;;;;;16.60;56.20;;;;;;5072926;28;19924;-74
2022/05/30 11:26:19;;;;;;;;;;;16.60;55.10;;;;;;5073541;28;19928;-71
2022/05/30 11:28:58;;;;;;;;;;;16.70;55.40;;;;;;5070444;28;19937;-73
2022/05/30 11:31:28;;;;;;;;;;;16.80;56.10;;;;;;5065015;28;19932;-72
2022/05/30 11:34:04;;;;;;;;;;;16.80;56.00;;;;;;5068868;28;20048;-74
2022/05/30 11:36:39;;;;;;;;;;;16.90;55.40;;;;;;5066124;28;19932;-73
2022/05/30 11:39:13;;;;;;;;;;;16.90;55.00;;;;;;5071167;28;19928;-70
2022/05/30 11:41:44;;;;;;;;;;;16.90;54.50;;;;;;5069424;28;19924;-70
2022/05/30 11:44:23;;;;;;;;;;;16.90;54.40;;;;;;5075012;28;20626;-72
2022/05/30 11:46:55;;;;;;;;;;;17.10;54.50;;;;;;5065290;28;19928;-73
2022/05/30 11:49:34;;;;;;;;;;;17.10;54.40;;;;;;5066518;28;19931;-73
2022/05/30 11:52:10;;;;;;;;;;;17.10;54.10;;;;;;5069297;28;19936;-77
2022/05/30 11:54:42;;;;;;;;;;;17.20;54.90;;;;;;5074904;28;19928;-75
2022/05/30 11:57:22;;;;;;;;;;;17.40;53.80;;;;;;5066722;28;20532;-72
2022/05/30 12:00:02;;;;;;;;;;;17.40;53.60;;;;;;5070475;28;20487;-75
2022/05/30 12:02:36;;;;;;;;;;;17.50;53.20;;;;;;5080905;28;19974;-71
2022/05/30 12:05:30;;;;;;;;;;;17.60;53.30;;;;;;5082785;28;19943;-73
2022/05/30 12:08:10;;;;;;;;;;;17.60;52.90;;;;;;5068583;28;19928;-72
2022/05/30 12:10:46;;;;;;;;;;;17.70;52.80;;;;;;5076668;28;20057;-73
2022/05/30 12:13:22;;;;;;;;;;;17.80;52.70;;;;;;5070760;28;20347;-73
2022/05/30 12:15:57;;;;;;;;;;;17.90;52.50;;;;;;5072681;28;19936;-75
2022/05/30 12:24:22;;;;;;;;;;;18.00;52.60;;;;;;5080827;28;19927;-71
2022/05/30 12:27:06;;;;;;;;;;;18.10;51.70;;;;;;5075002;28;20090;-73
2022/05/30 12:29:47;;;;;;;;;;;18.10;51.70;;;;;;5078031;28;19935;-73
2022/05/30 12:32:32;;;;;;;;;;;18.20;51.50;;;;;;5077106;28;19928;-70
2022/05/30 12:35:14;;;;;;;;;;;18.20;51.60;;;;;;5075044;28;20095;-71
2022/05/30 12:37:47;;;;;;;;;;;18.30;51.30;;;;;;5067314;28;19936;-77
2022/05/30 12:40:22;;;;;;;;;;;18.40;51.70;;;;;;5072313;28;19928;-73
2022/05/30 12:42:57;;;;;;;;;;;18.40;51.90;;;;;;5078700;28;20014;-72
2022/05/30 12:45:37;;;;;;;;;;;18.50;51.40;;;;;;5074463;28;19959;-76
2022/05/30 12:48:12;;;;;;;;;;;18.50;50.20;;;;;;5074281;28;19959;-73
2022/05/30 12:50:42;;;;;;;;;;;18.60;50.20;;;;;;5075166;28;20411;-73
2022/05/30 12:53:09;;;;;;;;;;;18.60;50.50;;;;;;5074512;28;20029;-75
2022/05/30 12:55:37;;;;;;;;;;;18.70;50.00;;;;;;5078255;28;19950;-76
2022/05/30 12:58:14;;;;;;;;;;;18.70;49.50;;;;;;5073611;28;19936;-73
2022/05/30 13:04:06;;;;;;;;;;;18.80;49.90;;;;;;5066198;28;20566;-73
2022/05/30 13:06:42;;;;;;;;;;;18.90;49.70;;;;;;5074956;28;19928;-74
2022/05/30 13:09:30;;;;;;;;;;;19.00;49.70;;;;;;5077537;28;19939;-75
2022/05/30 13:12:15;;;;;;;;;;;19.10;49.90;;;;;;5070397;28;20526;-74
2022/05/30 13:18:00;;;;;;;;;;;19.30;49.70;;;;;;5022292;28;19968;-76
2022/05/30 13:20:32;;;;;;;;;;;19.30;49.70;;;;;;5080396;28;19928;-77
2022/05/30 13:22:59;;;;;;;;;;;19.50;49.20;;;;;;5090789;28;20007;-74
2022/05/30 13:25:28;;;;;;;;;;;19.50;48.80;;;;;;5081573;28;19932;-74
2022/05/30 13:27:56;;;;;;;;;;;19.60;48.90;;;;;;5071986;28;19932;-74
2022/05/30 13:30:25;;;;;;;;;;;19.60;49.30;;;;;;5067768;28;20936;-72
2022/05/30 13:32:52;;;;;;;;;;;19.80;48.90;;;;;;5082189;28;19935;-73
2022/05/30 13:35:19;;;;;;;;;;;19.80;48.10;;;;;;5084596;28;19935;-70
2022/05/30 13:37:50;;;;;;;;;;;19.90;48.20;;;;;;5077914;28;19928;-72
2022/05/30 13:40:27;;;;;;;;;;;19.90;47.90;;;;;;5078877;28;19928;-72
2022/05/30 13:42:54;;;;;;;;;;;20.00;47.90;;;;;;5081943;28;19932;-66
2022/05/30 13:45:22;;;;;;;;;;;20.10;48.20;;;;;;5082347;28;19928;-70
2022/05/30 13:47:49;;;;;;;;;;;20.20;47.70;;;;;;5076162;28;19928;-70
2022/05/30 13:50:17;;;;;;;;;;;20.20;46.90;;;;;;5084272;28;19931;-68
2022/05/30 13:52:44;;;;;;;;;;;20.30;46.10;;;;;;5083201;28;19935;-67
2022/05/30 13:55:24;;;;;;;;;;;20.40;46.80;;;;;;5084151;28;19939;-70
2022/05/30 13:57:51;;;;;;;;;;;20.50;47.20;;;;;;5081334;28;19932;-67
2022/05/30 14:00:19;;;;;;;;;;;20.50;46.60;;;;;;5079182;28;20388;-76
2022/05/30 14:02:47;;;;;;;;;;;20.60;46.50;;;;;;5080686;28;19935;-77
2022/05/30 14:05:15;;;;;;;;;;;21.20;40.30;;;;;;5082887;28;20097;-79
2022/05/30 14:07:46;;;;;;;;;;;21.80;37.60;;;;;;5071934;28;19975;-78
2022/05/30 14:10:15;;;;;;;;;;;22.00;39.60;;;;;;5071884;28;19981;-79
2022/05/30 14:12:42;;;;;;;;;;;22.00;40.60;;;;;;5080101;28;19932;-76
2022/05/30 14:15:14;;;;;;;;;;;21.90;41.60;;;;;;5078340;28;19943;-76
2022/05/30 14:17:47;;;;;;;;;;;21.70;43.00;;;;;;5080088;28;20388;-76
2022/05/30 14:20:26;;;;;;;;;;;21.60;42.50;;;;;;5080984;28;19928;-79
2022/05/30 14:22:53;;;;;;;;;;;21.50;42.60;;;;;;5076928;28;20030;-76
2022/05/30 14:25:24;;;;;;;;;;;21.40;42.70;;;;;;5072663;28;20561;-77
2022/05/30 14:27:51;;;;;;;;;;;21.40;42.90;;;;;;5075303;28;19928;-76
2022/05/30 14:30:19;;;;;;;;;;;21.40;42.90;;;;;;5079285;28;20419;-77
2022/05/30 14:32:49;;;;;;;;;;;21.30;43.90;;;;;;5076173;28;19928;-77
2022/05/30 14:35:23;;;;;;;;;;;21.30;43.60;;;;;;5080339;28;20544;-76
2022/05/30 14:38:01;;;;;;;;;;;21.30;44.40;;;;;;5072641;28;19928;-76
2022/05/30 14:40:33;;;;;;;;;;;21.20;44.50;;;;;;5080633;28;19928;-77
2022/05/30 14:43:00;;;;;;;;;;;21.20;44.80;;;;;;5073931;28;20215;-75
2022/05/30 14:45:28;;;;;;;;;;;21.20;45.30;;;;;;5070568;28;19936;-77
2022/05/30 14:47:58;;;;;;;;;;;21.20;44.50;;;;;;5078882;28;19928;-78
2022/05/30 14:50:27;;;;;;;;;;;21.20;44.80;;;;;;5078759;28;19935;-78
2022/05/30 14:52:56;;;;;;;;;;;21.20;45.60;;;;;;5082847;28;20578;-76
2022/05/30 14:55:27;;;;;;;;;;;21.10;45.50;;;;;;5073556;28;20018;-75
2022/05/30 14:57:56;;;;;;;;;;;21.20;45.50;;;;;;5073061;28;19935;-77
2022/05/30 15:00:25;;;;;;;;;;;21.20;45.20;;;;;;5074388;28;20319;-79